createdAt,value
2023-01-30T00:02:33.631Z,10.75
2023-01-30T00:07:35.044Z,11.25
2023-01-30T00:12:36.437Z,10.88
2023-01-30T00:17:37.835Z,12.05
2023-01-30T00:22:42.367Z,12.32
2023-01-30T00:27:45.583Z,12.30
2023-01-30T00:32:47.082Z,12.15
2023-01-30T00:37:48.519Z,12.65
2023-01-30T00:43:08.864Z,14.32
2023-01-30T00:48:10.454Z,12.43
2023-01-30T00:53:14.024Z,13.35
2023-01-30T00:58:15.456Z,14.90
2023-01-30T01:03:17.645Z,15.43
2023-01-30T01:08:20.090Z,14.75
2023-01-30T01:13:21.788Z,15.90
2023-01-30T01:18:23.292Z,13.63
2023-01-30T01:23:24.721Z,13.88
2023-01-30T01:28:26.107Z,14.55
2023-01-30T01:33:28.511Z,13.35
2023-01-30T01:38:30.289Z,14.65
2023-01-30T01:43:37.397Z,16.38
2023-01-30T01:48:51.953Z,13.57
2023-01-30T01:53:58.808Z,14.68
2023-01-30T01:59:13.732Z,13.55
2023-01-30T02:04:35.813Z,13.77
2023-01-30T02:09:37.587Z,14.77
2023-01-30T02:14:40.400Z,14.48
2023-01-30T02:19:51.079Z,13.48
2023-01-30T02:25:21.119Z,14.55
2023-01-30T02:30:44.471Z,14.07
2023-01-30T02:36:17.034Z,13.55
2023-01-30T02:41:37.307Z,13.15
2023-01-30T02:52:03.385Z,11.90
2023-01-30T02:57:18.922Z,12.05
2023-01-30T03:02:29.566Z,12.95
2023-01-30T03:08:14.212Z,12.40
2023-01-30T03:13:40.641Z,11.73
2023-01-30T03:18:43.418Z,11.15
2023-01-30T03:23:48.369Z,13.13
2023-01-30T03:28:51.139Z,11.15
2023-01-30T03:33:52.753Z,11.25
2023-01-30T03:38:54.246Z,11.52
2023-01-30T03:43:55.716Z,10.07
2023-01-30T03:48:57.094Z,9.88
2023-01-30T03:53:58.569Z,8.63
2023-01-30T03:59:00.032Z,8.63
2023-01-30T04:04:01.421Z,9.88
2023-01-30T04:09:02.884Z,8.70
2023-01-30T04:14:04.246Z,9.20
2023-01-30T04:19:05.736Z,9.38
2023-01-30T04:24:07.319Z,9.27
2023-01-30T04:29:08.919Z,8.13
2023-01-30T04:34:10.328Z,9.77
2023-01-30T04:39:11.732Z,8.23
2023-01-30T04:44:13.141Z,8.30
2023-01-30T04:49:14.606Z,8.40
2023-01-30T04:54:16.122Z,7.97
2023-01-30T04:59:17.583Z,8.27
2023-01-30T05:04:19.010Z,9.13
2023-01-30T05:09:20.435Z,7.90
2023-01-30T05:14:21.884Z,8.45
2023-01-30T05:19:23.368Z,8.88
2023-01-30T05:24:24.870Z,7.95
2023-01-30T05:29:26.251Z,7.47
2023-01-30T05:34:27.709Z,6.60
2023-01-30T05:39:29.177Z,7.47
2023-01-30T05:44:31.110Z,7.20
2023-01-30T05:49:32.527Z,6.38
2023-01-30T05:54:34.893Z,7.40
2023-01-30T05:59:36.370Z,7.05
2023-01-30T06:04:37.886Z,6.60
2023-01-30T06:09:39.399Z,6.85
2023-01-30T06:14:40.939Z,7.18
2023-01-30T06:19:42.352Z,7.22
2023-01-30T06:24:43.780Z,7.70
2023-01-30T06:29:45.255Z,7.40
2023-01-30T06:34:46.708Z,8.25
2023-01-30T06:39:48.145Z,7.85
2023-01-30T06:44:49.714Z,7.18
2023-01-30T06:49:51.135Z,7.53
2023-01-30T06:54:52.636Z,9.10
2023-01-30T06:59:54.065Z,8.18
2023-01-30T07:04:55.576Z,6.95
2023-01-30T07:10:07.381Z,7.65
2023-01-30T07:15:09.861Z,5.53
2023-01-30T07:20:11.858Z,6.00
2023-01-30T07:25:13.319Z,6.25
2023-01-30T07:30:15.090Z,6.90
2023-01-30T07:35:16.607Z,7.38
2023-01-30T07:40:19.217Z,6.93
2023-01-30T07:45:20.712Z,7.78
2023-01-30T07:50:22.176Z,6.68
2023-01-30T07:55:23.871Z,6.13
2023-01-30T08:00:25.779Z,7.70
2023-01-30T08:05:27.265Z,8.18
2023-01-30T08:10:28.849Z,7.72
2023-01-30T08:15:31.892Z,6.47
2023-01-30T08:20:33.691Z,8.02
2023-01-30T08:25:35.875Z,6.57
2023-01-30T08:30:37.452Z,6.45
2023-01-30T08:35:40.459Z,7.30
2023-01-30T08:40:42.591Z,6.75
2023-01-30T08:45:44.046Z,6.53
2023-01-30T08:50:45.613Z,7.30
2023-01-30T08:55:51.293Z,6.18
2023-01-30T09:00:52.858Z,7.53
2023-01-30T09:05:56.119Z,6.68
2023-01-30T09:11:02.230Z,6.63
2023-01-30T09:16:06.339Z,6.45
2023-01-30T09:21:09.521Z,7.35
2023-01-30T09:26:11.166Z,5.63
2023-01-30T09:31:13.037Z,6.50
2023-01-30T09:36:14.815Z,6.28
2023-01-30T09:41:47.271Z,7.45
2023-01-30T09:47:00.959Z,6.57
2023-01-30T09:52:29.691Z,7.30
2023-01-30T09:57:31.263Z,6.20
2023-01-30T10:02:44.575Z,6.68
2023-01-30T10:08:06.786Z,6.85
2023-01-30T10:13:39.094Z,6.88
2023-01-30T10:18:49.590Z,5.18
2023-01-30T10:29:22.715Z,6.55
2023-01-30T10:34:38.805Z,6.90
2023-01-30T10:39:59.281Z,6.75
2023-01-30T10:50:18.767Z,6.70
2023-01-30T10:55:36.377Z,5.93
2023-01-30T11:01:07.126Z,6.57
2023-01-30T11:06:16.593Z,5.10
2023-01-30T11:11:30.362Z,5.97
2023-01-30T11:16:40.382Z,6.57
2023-01-30T11:21:44.979Z,6.70
2023-01-30T11:26:48.432Z,6.75
2023-01-30T11:31:51.792Z,6.25
2023-01-30T11:36:53.420Z,6.70
2023-01-30T11:41:58.491Z,6.47
2023-01-30T11:47:15.743Z,7.47
2023-01-30T11:52:19.114Z,7.95
2023-01-30T11:57:21.054Z,7.32
2023-01-30T12:02:27.119Z,7.20
2023-01-30T12:07:30.743Z,6.60
2023-01-30T12:12:54.866Z,7.90
2023-01-30T12:18:10.650Z,8.27
2023-01-30T12:23:34.232Z,8.27
2023-01-30T12:29:03.480Z,8.00
2023-01-30T12:34:05.220Z,8.43
2023-01-30T12:39:20.492Z,9.70
2023-01-30T12:44:59.836Z,9.18
2023-01-30T12:50:21.251Z,10.48
2023-01-30T12:55:31.794Z,10.18
2023-01-30T13:00:54.823Z,10.35
2023-01-30T13:06:24.320Z,9.98
2023-01-30T13:11:45.079Z,10.48
2023-01-30T13:17:20.447Z,10.20
2023-01-30T13:22:30.797Z,10.18
2023-01-30T13:32:52.040Z,9.93
2023-01-30T13:37:55.276Z,12.10
2023-01-30T13:43:02.312Z,11.80
2023-01-30T13:48:12.836Z,11.82
2023-01-30T13:53:22.837Z,11.95
2023-01-30T13:58:46.310Z,11.70
2023-01-30T14:03:47.861Z,10.35
2023-01-30T14:09:01.380Z,12.10
2023-01-30T14:14:23.111Z,11.50
2023-01-30T14:19:38.927Z,10.73
2023-01-30T14:24:40.566Z,12.35
2023-01-30T14:29:41.973Z,10.73
2023-01-30T14:35:10.610Z,11.52
2023-01-30T14:40:21.418Z,12.57
2023-01-30T14:45:46.355Z,14.93
2023-01-30T14:50:48.071Z,12.77
2023-01-30T14:56:00.630Z,12.65
2023-01-30T15:01:02.267Z,12.80
2023-01-30T15:06:06.725Z,9.15
2023-01-30T15:11:21.129Z,9.07
2023-01-30T15:17:05.754Z,10.27
2023-01-30T15:22:38.014Z,8.60
2023-01-30T15:28:01.909Z,8.50
2023-01-30T15:33:22.785Z,9.50
2023-01-30T15:38:33.809Z,8.93
2023-01-30T15:44:00.007Z,8.82
2023-01-30T15:49:04.371Z,8.27
2023-01-30T15:54:11.133Z,9.73
2023-01-30T15:59:28.835Z,9.20
2023-01-30T16:04:30.682Z,7.75
2023-01-30T16:09:32.148Z,8.35
2023-01-30T16:14:34.590Z,8.00
2023-01-30T16:19:39.008Z,8.43
2023-01-30T16:24:45.986Z,8.98
2023-01-30T16:29:53.148Z,9.57
2023-01-30T16:35:17.414Z,9.77
2023-01-30T16:40:24.858Z,9.82
2023-01-30T16:45:35.591Z,10.85
2023-01-30T16:50:37.086Z,8.68
2023-01-30T16:55:38.753Z,8.65
2023-01-30T17:00:40.804Z,7.72
2023-01-30T17:05:45.915Z,8.32
2023-01-30T17:10:54.920Z,8.52
2023-01-30T17:16:18.254Z,7.22
2023-01-30T17:21:20.845Z,8.52
2023-01-30T17:26:22.811Z,8.95
2023-01-30T17:31:24.607Z,8.30
2023-01-30T17:36:28.956Z,9.38
2023-01-30T17:41:32.478Z,8.30
2023-01-30T17:46:40.980Z,7.60
2023-01-30T17:51:43.211Z,8.00
2023-01-30T17:56:46.898Z,7.50
2023-01-30T18:01:50.588Z,7.78
2023-01-30T18:07:03.634Z,7.43
2023-01-30T18:12:05.278Z,8.73
2023-01-30T18:17:06.781Z,8.27
2023-01-30T18:22:08.265Z,8.07
2023-01-30T18:27:09.821Z,7.20
2023-01-30T18:32:11.245Z,7.65
2023-01-30T18:37:12.704Z,8.15
2023-01-30T18:42:14.169Z,7.35
2023-01-30T18:47:15.714Z,8.07
2023-01-30T18:52:17.119Z,7.40
2023-01-30T18:57:18.573Z,9.63
2023-01-30T19:02:20.046Z,9.30
2023-01-30T19:07:21.565Z,7.60
2023-01-30T19:12:42.387Z,6.05
2023-01-30T19:17:43.875Z,7.43
2023-01-30T19:22:45.371Z,6.10
2023-01-30T19:27:46.867Z,6.43
2023-01-30T19:32:52.012Z,5.55
2023-01-30T19:37:55.139Z,5.63
2023-01-30T19:42:59.601Z,5.88
2023-01-30T19:48:08.617Z,5.75
2023-01-30T19:53:10.096Z,5.90
2023-01-30T19:58:12.157Z,6.25
2023-01-30T20:03:16.324Z,5.60
2023-01-30T20:08:31.648Z,5.97
2023-01-30T20:13:39.092Z,5.90
2023-01-30T20:18:41.262Z,6.10
2023-01-30T20:23:46.695Z,5.90
2023-01-30T20:28:49.395Z,5.68
2023-01-30T20:33:51.370Z,6.80
2023-01-30T20:38:53.792Z,5.78
2023-01-30T20:43:59.682Z,4.40
2023-01-30T20:49:01.684Z,5.50
2023-01-30T20:54:09.235Z,5.68
2023-01-30T20:59:16.673Z,5.40
2023-01-30T21:04:19.212Z,6.25
2023-01-30T21:09:23.397Z,6.07
2023-01-30T21:14:26.596Z,5.47
2023-01-30T21:19:28.227Z,5.20
2023-01-30T21:24:30.558Z,5.75
2023-01-30T21:29:32.582Z,5.93
2023-01-30T21:34:35.208Z,6.13
2023-01-30T21:39:55.556Z,5.53
2023-01-30T21:44:58.341Z,5.70
2023-01-30T21:49:59.850Z,5.18
2023-01-30T21:55:01.260Z,5.38
2023-01-30T22:00:03.507Z,4.72
2023-01-30T22:05:05.837Z,5.35
2023-01-30T22:10:07.785Z,5.20
2023-01-30T22:15:09.603Z,5.32
2023-01-30T22:20:11.841Z,4.75
2023-01-30T22:25:13.276Z,5.00
2023-01-30T22:30:14.931Z,5.32
2023-01-30T22:35:16.457Z,5.70
2023-01-30T22:40:18.014Z,5.88
2023-01-30T22:45:19.922Z,5.63
2023-01-30T22:50:21.564Z,7.15
2023-01-30T22:55:23.173Z,6.70
2023-01-30T23:00:24.603Z,5.45
2023-01-30T23:05:26.010Z,6.80
2023-01-30T23:10:27.418Z,6.47
2023-01-30T23:15:28.847Z,5.95
2023-01-30T23:20:30.467Z,5.57
2023-01-30T23:25:31.959Z,5.95
2023-01-30T23:30:33.505Z,5.13
2023-01-30T23:35:35.427Z,4.90
2023-01-30T23:40:36.939Z,4.25
2023-01-30T23:45:38.876Z,4.40
2023-01-30T23:50:42.127Z,3.83
2023-01-30T23:55:53.202Z,3.33
